EWG43D LEMG-EDDK
Flight info
| Callsign | EWG43D |
|---|---|
| Flight time | 2h 39m |
| Altitude | 36000 |
| Route | BLN N865 VTB N867 DGO L176 LUSEM DCT LULUT DCT ADABI DCT BOKNO DCT DIBES DCT VIQAQ DCT TSU UN858 OQQAL DCT RANUX/N0436F370 DCT VALEK DCT LUTAX UM163 DIK/N0403F290 N853 ARCKY T853 IBESA T860 ERUKI T856 DEPOK |
| Aircraft | A320/M-SDE2E3FGIJ1RWXY/L |
Departure
| Time | 2026-04-23 13:24 |
|---|---|
| Airport | Málaga-Costa del Sol Airport (LEMG) |
Arrival
| Time | 2026-04-23 16:03 |
|---|---|
| Airport | Cologne Bonn Airport (EDDK) |
| Time | Latitude | Longitude | Altitude | Speed | Heading |
|---|---|---|---|---|---|
| 2026-04-23 12:35 | 36.67886 | -4.49566 | 42 ft | 0 kts | 132° |
| 2026-04-23 13:12 | 36.67900 | -4.49585 | 42 ft | 4 kts | 133° |
| 2026-04-23 13:12 | 36.67919 | -4.49609 | 42 ft | 4 kts | 136° |
| 2026-04-23 13:12 | 36.67940 | -4.49632 | 42 ft | 4 kts | 143° |
| 2026-04-23 13:12 | 36.67962 | -4.49648 | 42 ft | 4 kts | 167° |
| 2026-04-23 13:13 | 36.67983 | -4.49646 | 42 ft | 4 kts | 212° |
| 2026-04-23 13:13 | 36.67995 | -4.49635 | 42 ft | 0 kts | 221° |
| 2026-04-23 13:16 | 36.67992 | -4.49638 | 42 ft | 2 kts | 221° |
| 2026-04-23 13:16 | 36.67965 | -4.49668 | 39 ft | 8 kts | 221° |
| 2026-04-23 13:16 | 36.67913 | -4.49725 | 42 ft | 6 kts | 221° |
| 2026-04-23 13:16 | 36.67877 | -4.49765 | 42 ft | 8 kts | 222° |
| 2026-04-23 13:17 | 36.67853 | -4.49792 | 41 ft | 6 kts | 221° |
| 2026-04-23 13:17 | 36.67818 | -4.49831 | 42 ft | 8 kts | 221° |
| 2026-04-23 13:17 | 36.67776 | -4.49861 | 42 ft | 6 kts | 195° |
| 2026-04-23 13:17 | 36.67725 | -4.49890 | 43 ft | 11 kts | 226° |
| 2026-04-23 13:18 | 36.67738 | -4.49961 | 40 ft | 8 kts | 310° |
| 2026-04-23 13:18 | 36.67786 | -4.50028 | 44 ft | 13 kts | 311° |
| 2026-04-23 13:18 | 36.67855 | -4.50125 | 44 ft | 15 kts | 311° |
| 2026-04-23 13:18 | 36.67920 | -4.50215 | 45 ft | 13 kts | 311° |
| 2026-04-23 13:19 | 36.67987 | -4.50310 | 44 ft | 15 kts | 311° |
| 2026-04-23 13:19 | 36.68059 | -4.50411 | 42 ft | 17 kts | 311° |
| 2026-04-23 13:19 | 36.68134 | -4.50515 | 44 ft | 15 kts | 311° |
| 2026-04-23 13:19 | 36.68198 | -4.50605 | 42 ft | 14 kts | 311° |
| 2026-04-23 13:20 | 36.68268 | -4.50704 | 45 ft | 17 kts | 311° |
| 2026-04-23 13:20 | 36.68341 | -4.50806 | 47 ft | 14 kts | 311° |
| 2026-04-23 13:20 | 36.68413 | -4.50907 | 50 ft | 18 kts | 311° |
| 2026-04-23 13:20 | 36.68482 | -4.51001 | 52 ft | 12 kts | 321° |
| 2026-04-23 13:21 | 36.68567 | -4.51069 | 51 ft | 17 kts | 311° |
| 2026-04-23 13:21 | 36.68617 | -4.51149 | 47 ft | 11 kts | 295° |
| 2026-04-23 13:21 | 36.68581 | -4.51233 | 53 ft | 11 kts | 223° |
| 2026-04-23 13:21 | 36.68529 | -4.51266 | 57 ft | 8 kts | 179° |
| 2026-04-23 13:22 | 36.68467 | -4.51236 | 53 ft | 9 kts | 155° |
| 2026-04-23 13:22 | 36.68419 | -4.51207 | 57 ft | 6 kts | 147° |
| 2026-04-23 13:22 | 36.68395 | -4.51177 | 55 ft | 0 kts | 131° |
| 2026-04-23 13:23 | 36.68288 | -4.51028 | 54 ft | 59 kts | 131° |
| 2026-04-23 13:23 | 36.67868 | -4.50439 | 52 ft | 120 kts | 131° |
| 2026-04-23 13:23 | 36.67201 | -4.49505 | 49 ft | 167 kts | 131° |
| 2026-04-23 13:24 | 36.66439 | -4.48426 | 725 ft | 163 kts | 131° |
| 2026-04-23 13:24 | 36.65703 | -4.47378 | 1460 ft | 162 kts | 130° |
| 2026-04-23 13:24 | 36.64911 | -4.46276 | 1844 ft | 181 kts | 130° |
| 2026-04-23 13:24 | 36.64027 | -4.45049 | 2144 ft | 203 kts | 130° |
| 2026-04-23 13:25 | 36.63064 | -4.43715 | 2863 ft | 209 kts | 130° |
| 2026-04-23 13:25 | 36.62088 | -4.42363 | 3680 ft | 210 kts | 129° |
| 2026-04-23 13:25 | 36.61107 | -4.40998 | 4461 ft | 213 kts | 129° |
| 2026-04-23 13:25 | 36.60181 | -4.39570 | 5199 ft | 216 kts | 118° |
| 2026-04-23 13:26 | 36.59687 | -4.37776 | 5819 ft | 225 kts | 103° |
| 2026-04-23 13:26 | 36.59363 | -4.35828 | 6401 ft | 235 kts | 104° |
| 2026-04-23 13:26 | 36.59023 | -4.33798 | 6968 ft | 244 kts | 104° |
| 2026-04-23 13:26 | 36.58673 | -4.31708 | 7667 ft | 248 kts | 104° |
| 2026-04-23 13:27 | 36.58534 | -4.29546 | 8373 ft | 255 kts | 86° |
| 2026-04-23 13:27 | 36.58995 | -4.27402 | 8930 ft | 271 kts | 66° |
| 2026-04-23 13:27 | 36.60105 | -4.25374 | 9250 ft | 294 kts | 53° |
| 2026-04-23 13:27 | 36.61404 | -4.23353 | 9881 ft | 302 kts | 52° |
| 2026-04-23 13:28 | 36.62948 | -4.21490 | 10290 ft | 321 kts | 38° |
| 2026-04-23 13:28 | 36.64970 | -4.20072 | 10497 ft | 345 kts | 21° |
| 2026-04-23 13:28 | 36.67296 | -4.19130 | 11016 ft | 355 kts | 18° |
| 2026-04-23 13:28 | 36.69665 | -4.18186 | 11705 ft | 359 kts | 19° |
| 2026-04-23 13:29 | 36.72027 | -4.17229 | 12376 ft | 363 kts | 19° |
| 2026-04-23 13:29 | 36.74447 | -4.16263 | 13068 ft | 367 kts | 19° |
| 2026-04-23 13:29 | 36.76904 | -4.15297 | 13759 ft | 371 kts | 19° |
| 2026-04-23 13:29 | 36.79378 | -4.14334 | 14360 ft | 374 kts | 19° |
| 2026-04-23 13:30 | 36.81883 | -4.13362 | 14939 ft | 378 kts | 19° |
| 2026-04-23 13:30 | 36.84419 | -4.12377 | 15527 ft | 382 kts | 19° |
| 2026-04-23 13:30 | 36.86977 | -4.11384 | 16110 ft | 386 kts | 19° |
| 2026-04-23 13:30 | 36.89524 | -4.10392 | 16683 ft | 389 kts | 19° |
| 2026-04-23 13:31 | 36.92124 | -4.09375 | 17250 ft | 394 kts | 19° |
| 2026-04-23 13:31 | 36.94750 | -4.08347 | 17814 ft | 397 kts | 18° |
| 2026-04-23 13:31 | 36.97401 | -4.07308 | 18354 ft | 401 kts | 18° |
| 2026-04-23 13:31 | 37.00076 | -4.06254 | 18826 ft | 404 kts | 18° |
| 2026-04-23 13:32 | 37.02768 | -4.05193 | 19312 ft | 407 kts | 18° |
| 2026-04-23 13:32 | 37.05487 | -4.04123 | 19806 ft | 410 kts | 19° |
| 2026-04-23 13:32 | 37.08191 | -4.03058 | 20291 ft | 413 kts | 19° |
| 2026-04-23 13:32 | 37.10949 | -4.01974 | 20777 ft | 415 kts | 18° |
| 2026-04-23 13:33 | 37.13713 | -4.00885 | 21239 ft | 417 kts | 18° |
| 2026-04-23 13:33 | 37.16501 | -3.99791 | 21675 ft | 421 kts | 18° |
| 2026-04-23 13:33 | 37.19308 | -3.98691 | 22141 ft | 423 kts | 18° |
| 2026-04-23 13:33 | 37.22129 | -3.97614 | 22633 ft | 425 kts | 18° |
| 2026-04-23 13:34 | 37.24983 | -3.96550 | 23071 ft | 429 kts | 17° |
| 2026-04-23 13:34 | 37.27853 | -3.95494 | 23504 ft | 432 kts | 17° |
| 2026-04-23 13:34 | 37.30749 | -3.94430 | 23885 ft | 434 kts | 17° |
| 2026-04-23 13:34 | 37.33653 | -3.93358 | 24286 ft | 436 kts | 17° |
| 2026-04-23 13:35 | 37.36534 | -3.92286 | 24608 ft | 438 kts | 17° |
| 2026-04-23 13:35 | 37.39468 | -3.91186 | 24973 ft | 441 kts | 17° |
| 2026-04-23 13:35 | 37.42413 | -3.90079 | 25340 ft | 443 kts | 17° |
| 2026-04-23 13:35 | 37.45372 | -3.88968 | 25714 ft | 445 kts | 17° |
| 2026-04-23 13:36 | 37.48348 | -3.87852 | 26083 ft | 447 kts | 17° |
| 2026-04-23 13:36 | 37.51333 | -3.86731 | 26444 ft | 449 kts | 17° |
| 2026-04-23 13:36 | 37.54333 | -3.85604 | 26811 ft | 451 kts | 17° |
| 2026-04-23 13:36 | 37.57344 | -3.84469 | 27138 ft | 453 kts | 17° |
| 2026-04-23 13:37 | 37.60372 | -3.83327 | 27477 ft | 455 kts | 17° |
| 2026-04-23 13:37 | 37.63425 | -3.82177 | 27814 ft | 457 kts | 17° |
| 2026-04-23 13:37 | 37.66439 | -3.81041 | 28171 ft | 458 kts | 17° |
| 2026-04-23 13:37 | 37.69503 | -3.79885 | 28582 ft | 459 kts | 17° |
| 2026-04-23 13:38 | 37.72582 | -3.78723 | 28882 ft | 461 kts | 17° |
| 2026-04-23 13:38 | 37.75666 | -3.77555 | 29190 ft | 464 kts | 17° |
| 2026-04-23 13:38 | 37.78757 | -3.76379 | 29492 ft | 466 kts | 16° |
| 2026-04-23 13:38 | 37.81880 | -3.75194 | 29789 ft | 468 kts | 16° |
| 2026-04-23 13:39 | 37.85010 | -3.74005 | 30069 ft | 470 kts | 16° |
| 2026-04-23 13:39 | 37.88110 | -3.72829 | 30306 ft | 472 kts | 16° |
| 2026-04-23 13:39 | 37.91265 | -3.71630 | 30551 ft | 474 kts | 16° |
| 2026-04-23 13:39 | 37.94435 | -3.70424 | 30791 ft | 475 kts | 16° |
| 2026-04-23 13:40 | 37.97610 | -3.69214 | 31014 ft | 477 kts | 16° |
| 2026-04-23 13:40 | 38.00786 | -3.68001 | 31338 ft | 475 kts | 16° |
| 2026-04-23 13:40 | 38.03951 | -3.66797 | 31626 ft | 475 kts | 16° |
| 2026-04-23 13:40 | 38.07124 | -3.65590 | 31936 ft | 475 kts | 16° |
| 2026-04-23 13:41 | 38.10294 | -3.64384 | 32269 ft | 475 kts | 17° |
| 2026-04-23 13:41 | 38.13417 | -3.63201 | 32596 ft | 473 kts | 15° |
| 2026-04-23 13:41 | 38.16649 | -3.62375 | 32896 ft | 473 kts | 5° |
| 2026-04-23 13:41 | 38.19931 | -3.62022 | 33210 ft | 472 kts | 3° |
| 2026-04-23 13:42 | 38.23206 | -3.61705 | 33531 ft | 470 kts | 3° |
| 2026-04-23 13:42 | 38.26468 | -3.61385 | 33818 ft | 469 kts | 3° |
| 2026-04-23 13:42 | 38.29703 | -3.61086 | 34072 ft | 470 kts | 3° |
| 2026-04-23 13:42 | 38.32990 | -3.60773 | 34376 ft | 471 kts | 3° |
| 2026-04-23 13:43 | 38.36258 | -3.60448 | 34697 ft | 470 kts | 3° |
| 2026-04-23 13:43 | 38.39529 | -3.60120 | 34982 ft | 470 kts | 3° |
| 2026-04-23 13:43 | 38.42777 | -3.59798 | 35261 ft | 466 kts | 3° |
| 2026-04-23 13:43 | 38.46018 | -3.59482 | 35437 ft | 466 kts | 3° |
| 2026-04-23 13:44 | 38.49223 | -3.59168 | 35636 ft | 467 kts | 3° |
| 2026-04-23 13:44 | 38.52457 | -3.58855 | 35844 ft | 466 kts | 2° |
| 2026-04-23 13:44 | 38.55698 | -3.58544 | 35955 ft | 465 kts | 2° |
| 2026-04-23 13:45 | 38.61062 | -3.58029 | 35979 ft | 464 kts | 3° |
| 2026-04-23 13:45 | 38.68527 | -3.57303 | 35971 ft | 461 kts | 2° |
| 2026-04-23 13:46 | 38.74923 | -3.56678 | 35971 ft | 461 kts | 2° |
| 2026-04-23 13:46 | 38.81335 | -3.56062 | 35972 ft | 461 kts | 3° |
| 2026-04-23 13:47 | 38.87758 | -3.55428 | 35978 ft | 463 kts | 3° |
| 2026-04-23 13:47 | 38.94187 | -3.54785 | 35996 ft | 463 kts | 2° |
| 2026-04-23 13:48 | 39.00589 | -3.54141 | 35999 ft | 463 kts | 3° |
| 2026-04-23 13:48 | 39.06972 | -3.53515 | 36005 ft | 461 kts | 2° |
| 2026-04-23 13:49 | 39.13363 | -3.52885 | 35995 ft | 459 kts | 3° |
| 2026-04-23 13:49 | 39.19735 | -3.52247 | 35982 ft | 460 kts | 2° |
| 2026-04-23 13:50 | 39.26082 | -3.51611 | 35965 ft | 456 kts | 2° |
| 2026-04-23 13:50 | 39.32383 | -3.50982 | 35975 ft | 457 kts | 2° |
| 2026-04-23 13:51 | 39.38758 | -3.50348 | 35989 ft | 458 kts | 2° |
| 2026-04-23 13:51 | 39.45120 | -3.49709 | 35983 ft | 459 kts | 2° |
| 2026-04-23 13:52 | 39.51467 | -3.49074 | 35996 ft | 459 kts | 2° |
| 2026-04-23 13:52 | 39.57839 | -3.48438 | 36010 ft | 459 kts | 2° |
| 2026-04-23 13:53 | 39.64215 | -3.47795 | 36016 ft | 459 kts | 2° |
| 2026-04-23 13:53 | 39.70547 | -3.47156 | 36015 ft | 459 kts | 2° |
| 2026-04-23 13:54 | 39.76925 | -3.46517 | 36018 ft | 459 kts | 2° |
| 2026-04-23 13:54 | 39.83294 | -3.45600 | 36022 ft | 460 kts | 7° |
| 2026-04-23 13:55 | 39.89587 | -3.44241 | 36025 ft | 460 kts | 8° |
| 2026-04-23 13:55 | 39.95905 | -3.42827 | 36024 ft | 460 kts | 7° |
| 2026-04-23 13:56 | 40.02237 | -3.41529 | 36036 ft | 459 kts | 6° |
| 2026-04-23 13:56 | 40.08511 | -3.40292 | 36044 ft | 457 kts | 6° |
| 2026-04-23 13:57 | 40.14810 | -3.39043 | 36047 ft | 457 kts | 7° |
| 2026-04-23 13:57 | 40.21091 | -3.37774 | 36046 ft | 456 kts | 7° |
| 2026-04-23 13:58 | 40.27335 | -3.36506 | 36044 ft | 455 kts | 7° |
| 2026-04-23 13:58 | 40.33589 | -3.35234 | 36043 ft | 454 kts | 7° |
| 2026-04-23 13:59 | 40.39846 | -3.33966 | 36041 ft | 454 kts | 7° |
| 2026-04-23 13:59 | 40.46093 | -3.32698 | 36045 ft | 454 kts | 7° |
| 2026-04-23 14:00 | 40.51294 | -3.31639 | 36028 ft | 456 kts | 7° |
| 2026-04-23 14:00 | 40.58626 | -3.30137 | 36021 ft | 456 kts | 7° |
| 2026-04-23 14:01 | 40.64864 | -3.28870 | 36044 ft | 458 kts | 7° |
| 2026-04-23 14:01 | 40.71153 | -3.27585 | 36028 ft | 457 kts | 7° |
| 2026-04-23 14:02 | 40.77431 | -3.26298 | 36044 ft | 456 kts | 7° |
| 2026-04-23 14:02 | 40.82640 | -3.25224 | 36033 ft | 455 kts | 7° |
| 2026-04-23 14:03 | 40.89926 | -3.23683 | 36050 ft | 456 kts | 7° |
| 2026-04-23 14:03 | 40.95149 | -3.22517 | 36039 ft | 455 kts | 8° |
| 2026-04-23 14:04 | 41.01404 | -3.21087 | 36034 ft | 456 kts | 8° |
| 2026-04-23 14:04 | 41.07623 | -3.19665 | 36035 ft | 455 kts | 8° |
| 2026-04-23 14:05 | 41.13866 | -3.18261 | 36031 ft | 453 kts | 7° |
| 2026-04-23 14:05 | 41.20103 | -3.16865 | 36025 ft | 454 kts | 7° |
| 2026-04-23 14:06 | 41.26312 | -3.15482 | 36023 ft | 455 kts | 7° |
| 2026-04-23 14:06 | 41.32553 | -3.14065 | 36028 ft | 455 kts | 8° |
| 2026-04-23 14:07 | 41.38803 | -3.12636 | 36032 ft | 454 kts | 8° |
| 2026-04-23 14:07 | 41.48139 | -3.10512 | 36013 ft | 455 kts | 7° |
| 2026-04-23 14:08 | 41.54353 | -3.09114 | 36024 ft | 455 kts | 7° |
| 2026-04-23 14:08 | 41.60617 | -3.07700 | 36016 ft | 455 kts | 7° |
| 2026-04-23 14:09 | 41.66873 | -3.06279 | 36026 ft | 455 kts | 7° |
| 2026-04-23 14:09 | 41.73095 | -3.04859 | 36031 ft | 455 kts | 7° |
| 2026-04-23 14:10 | 41.79354 | -3.03414 | 36040 ft | 455 kts | 7° |
| 2026-04-23 14:10 | 41.85553 | -3.01973 | 36045 ft | 454 kts | 7° |
| 2026-04-23 14:11 | 41.91786 | -3.00535 | 36046 ft | 453 kts | 7° |
| 2026-04-23 14:11 | 41.98007 | -2.99101 | 36046 ft | 452 kts | 7° |
| 2026-04-23 14:12 | 42.04188 | -2.97674 | 36045 ft | 452 kts | 7° |
| 2026-04-23 14:12 | 42.10384 | -2.96233 | 36045 ft | 452 kts | 7° |
| 2026-04-23 14:13 | 42.16583 | -2.94789 | 36043 ft | 451 kts | 7° |
| 2026-04-23 14:13 | 42.22760 | -2.93357 | 36088 ft | 450 kts | 7° |
| 2026-04-23 14:14 | 42.28906 | -2.91917 | 36016 ft | 447 kts | 7° |
| 2026-04-23 14:14 | 42.35043 | -2.90473 | 36016 ft | 448 kts | 7° |
| 2026-04-23 14:15 | 42.41151 | -2.88985 | 36022 ft | 449 kts | 12° |
| 2026-04-23 14:15 | 42.46922 | -2.85686 | 36026 ft | 454 kts | 31° |
| 2026-04-23 14:16 | 42.51828 | -2.80248 | 36026 ft | 456 kts | 40° |
| 2026-04-23 14:16 | 42.56542 | -2.74553 | 36040 ft | 457 kts | 40° |
| 2026-04-23 14:17 | 42.61311 | -2.68800 | 36054 ft | 457 kts | 40° |
| 2026-04-23 14:17 | 42.66043 | -2.63084 | 36051 ft | 458 kts | 39° |
| 2026-04-23 14:18 | 42.70814 | -2.57301 | 36061 ft | 458 kts | 40° |
| 2026-04-23 14:18 | 42.75547 | -2.51549 | 36058 ft | 458 kts | 40° |
| 2026-04-23 14:19 | 42.80309 | -2.45750 | 36060 ft | 458 kts | 40° |
| 2026-04-23 14:19 | 42.85055 | -2.39954 | 36062 ft | 458 kts | 40° |
| 2026-04-23 14:20 | 42.89809 | -2.34142 | 36039 ft | 458 kts | 40° |
| 2026-04-23 14:20 | 42.94528 | -2.28359 | 36047 ft | 458 kts | 39° |
| 2026-04-23 14:21 | 42.99278 | -2.22530 | 36063 ft | 457 kts | 39° |
| 2026-04-23 14:21 | 43.04005 | -2.16704 | 36074 ft | 456 kts | 40° |
| 2026-04-23 14:22 | 43.08675 | -2.10919 | 36072 ft | 454 kts | 40° |
| 2026-04-23 14:22 | 43.13365 | -2.05114 | 36061 ft | 453 kts | 40° |
| 2026-04-23 14:23 | 43.18010 | -1.99356 | 36050 ft | 452 kts | 40° |
| 2026-04-23 14:23 | 43.22681 | -1.93546 | 36047 ft | 452 kts | 40° |
| 2026-04-23 14:24 | 43.27321 | -1.87769 | 36040 ft | 452 kts | 39° |
| 2026-04-23 14:24 | 43.32148 | -1.82284 | 36040 ft | 447 kts | 29° |
| 2026-04-23 14:25 | 43.37501 | -1.78055 | 36036 ft | 446 kts | 27° |
| 2026-04-23 14:25 | 43.42779 | -1.73519 | 36047 ft | 447 kts | 30° |
| 2026-04-23 14:26 | 43.47939 | -1.68709 | 36068 ft | 447 kts | 31° |
| 2026-04-23 14:26 | 43.53107 | -1.63904 | 36066 ft | 447 kts | 30° |
| 2026-04-23 14:27 | 43.58307 | -1.59187 | 36066 ft | 447 kts | 30° |
| 2026-04-23 14:27 | 43.63489 | -1.54520 | 36050 ft | 447 kts | 30° |
| 2026-04-23 14:28 | 43.68689 | -1.49807 | 36057 ft | 446 kts | 30° |
| 2026-04-23 14:28 | 43.73831 | -1.45114 | 36059 ft | 444 kts | 30° |
| 2026-04-23 14:29 | 43.78991 | -1.40384 | 36057 ft | 444 kts | 30° |
| 2026-04-23 14:29 | 43.84147 | -1.35658 | 36066 ft | 443 kts | 30° |
| 2026-04-23 14:30 | 43.89264 | -1.30960 | 36062 ft | 443 kts | 30° |
| 2026-04-23 14:30 | 43.94405 | -1.26218 | 36060 ft | 443 kts | 30° |
| 2026-04-23 14:31 | 43.99551 | -1.21471 | 36065 ft | 443 kts | 30° |
| 2026-04-23 14:31 | 44.04699 | -1.16726 | 36072 ft | 443 kts | 30° |
| 2026-04-23 14:32 | 44.09798 | -1.12007 | 36082 ft | 442 kts | 30° |
| 2026-04-23 14:32 | 44.14917 | -1.07252 | 36076 ft | 441 kts | 30° |
| 2026-04-23 14:33 | 44.20007 | -1.02521 | 36075 ft | 441 kts | 30° |
| 2026-04-23 14:33 | 44.25113 | -0.97774 | 36084 ft | 441 kts | 30° |
| 2026-04-23 14:34 | 44.30208 | -0.93015 | 36083 ft | 441 kts | 30° |
| 2026-04-23 14:34 | 44.35309 | -0.88235 | 36082 ft | 440 kts | 30° |
| 2026-04-23 14:35 | 44.40459 | -0.83640 | 36086 ft | 436 kts | 22° |
| 2026-04-23 14:35 | 44.45961 | -0.80262 | 36082 ft | 434 kts | 20° |
| 2026-04-23 14:36 | 44.51498 | -0.76888 | 36084 ft | 434 kts | 20° |
| 2026-04-23 14:36 | 44.57040 | -0.73490 | 36110 ft | 433 kts | 20° |
| 2026-04-23 14:37 | 44.62574 | -0.70104 | 36103 ft | 432 kts | 20° |
| 2026-04-23 14:37 | 44.68063 | -0.66740 | 36100 ft | 432 kts | 20° |
| 2026-04-23 14:38 | 44.73565 | -0.63353 | 36093 ft | 432 kts | 20° |
| 2026-04-23 14:38 | 44.79049 | -0.59975 | 36092 ft | 432 kts | 20° |
| 2026-04-23 14:39 | 44.84555 | -0.56575 | 36094 ft | 431 kts | 20° |
| 2026-04-23 14:39 | 44.90053 | -0.53165 | 36093 ft | 431 kts | 20° |
| 2026-04-23 14:40 | 44.95553 | -0.49757 | 36093 ft | 431 kts | 20° |
| 2026-04-23 14:40 | 45.01012 | -0.46368 | 36103 ft | 431 kts | 20° |
| 2026-04-23 14:41 | 45.06517 | -0.42945 | 36104 ft | 430 kts | 20° |
| 2026-04-23 14:41 | 45.11991 | -0.39532 | 36101 ft | 430 kts | 20° |
| 2026-04-23 14:42 | 45.17471 | -0.36107 | 36100 ft | 430 kts | 20° |
| 2026-04-23 14:42 | 45.22916 | -0.32703 | 36113 ft | 430 kts | 20° |
| 2026-04-23 14:43 | 45.28393 | -0.29261 | 36115 ft | 430 kts | 20° |
| 2026-04-23 14:43 | 45.33859 | -0.25810 | 36113 ft | 429 kts | 20° |
| 2026-04-23 14:44 | 45.39330 | -0.22367 | 36118 ft | 430 kts | 20° |
| 2026-04-23 14:44 | 45.44778 | -0.18927 | 36117 ft | 429 kts | 20° |
| 2026-04-23 14:45 | 45.50238 | -0.15458 | 36119 ft | 429 kts | 20° |
| 2026-04-23 14:45 | 45.55668 | -0.12006 | 36119 ft | 429 kts | 20° |
| 2026-04-23 14:46 | 45.61131 | -0.08542 | 36131 ft | 430 kts | 20° |
| 2026-04-23 14:46 | 45.66607 | -0.05051 | 36130 ft | 430 kts | 20° |
| 2026-04-23 14:47 | 45.72031 | -0.01585 | 36145 ft | 429 kts | 20° |
| 2026-04-23 14:47 | 45.77483 | 0.01903 | 36163 ft | 429 kts | 20° |
| 2026-04-23 14:48 | 45.82934 | 0.05400 | 36162 ft | 428 kts | 20° |
| 2026-04-23 14:48 | 45.88357 | 0.08895 | 36153 ft | 427 kts | 20° |
| 2026-04-23 14:49 | 45.92865 | 0.11795 | 36155 ft | 426 kts | 20° |
| 2026-04-23 14:49 | 45.99160 | 0.15846 | 36160 ft | 426 kts | 20° |
| 2026-04-23 14:50 | 46.03657 | 0.18753 | 36162 ft | 426 kts | 20° |
| 2026-04-23 14:50 | 46.09951 | 0.22842 | 36163 ft | 426 kts | 20° |
| 2026-04-23 14:51 | 46.14448 | 0.25768 | 36160 ft | 425 kts | 20° |
| 2026-04-23 14:51 | 46.19854 | 0.29288 | 36168 ft | 425 kts | 20° |
| 2026-04-23 14:52 | 46.25243 | 0.32801 | 36173 ft | 424 kts | 20° |
| 2026-04-23 14:52 | 46.30600 | 0.36299 | 36169 ft | 424 kts | 20° |
| 2026-04-23 14:53 | 46.35986 | 0.39821 | 36168 ft | 424 kts | 21° |
| 2026-04-23 14:53 | 46.41356 | 0.43356 | 36193 ft | 422 kts | 20° |
| 2026-04-23 14:54 | 46.46705 | 0.46882 | 36191 ft | 421 kts | 20° |
| 2026-04-23 14:54 | 46.52009 | 0.50376 | 36187 ft | 420 kts | 20° |
| 2026-04-23 14:55 | 46.57427 | 0.53498 | 36196 ft | 415 kts | 10° |
| 2026-04-23 14:55 | 46.63050 | 0.55349 | 36193 ft | 413 kts | 9° |
| 2026-04-23 14:56 | 46.68631 | 0.57186 | 36193 ft | 413 kts | 9° |
| 2026-04-23 14:56 | 46.74232 | 0.59034 | 36192 ft | 412 kts | 9° |
| 2026-04-23 14:57 | 46.79826 | 0.60882 | 36189 ft | 412 kts | 9° |
| 2026-04-23 14:57 | 46.85417 | 0.62726 | 36193 ft | 412 kts | 9° |
| 2026-04-23 14:58 | 46.91010 | 0.64589 | 36191 ft | 412 kts | 9° |
| 2026-04-23 14:58 | 46.96592 | 0.66452 | 36186 ft | 411 kts | 9° |
| 2026-04-23 14:59 | 47.02173 | 0.68325 | 36194 ft | 411 kts | 10° |
| 2026-04-23 14:59 | 47.07454 | 0.71588 | 36192 ft | 420 kts | 27° |
| 2026-04-23 15:00 | 47.12444 | 0.76061 | 36190 ft | 420 kts | 27° |
| 2026-04-23 15:00 | 47.17463 | 0.80529 | 36198 ft | 420 kts | 27° |
| 2026-04-23 15:01 | 47.22471 | 0.84989 | 36228 ft | 421 kts | 26° |
| 2026-04-23 15:01 | 47.27440 | 0.89430 | 36228 ft | 420 kts | 26° |
| 2026-04-23 15:02 | 47.32439 | 0.93915 | 36222 ft | 421 kts | 27° |
| 2026-04-23 15:02 | 47.37438 | 0.98420 | 36220 ft | 420 kts | 27° |
| 2026-04-23 15:03 | 47.42428 | 1.02925 | 36225 ft | 420 kts | 27° |
| 2026-04-23 15:03 | 47.47395 | 1.07408 | 36217 ft | 420 kts | 27° |
| 2026-04-23 15:04 | 47.52394 | 1.11871 | 36217 ft | 419 kts | 25° |
| 2026-04-23 15:04 | 47.57522 | 1.15931 | 36225 ft | 417 kts | 22° |
| 2026-04-23 15:05 | 47.62699 | 1.19828 | 36228 ft | 417 kts | 22° |
| 2026-04-23 15:05 | 47.67866 | 1.23805 | 36240 ft | 418 kts | 23° |
| 2026-04-23 15:06 | 47.73014 | 1.27859 | 36253 ft | 418 kts | 24° |
| 2026-04-23 15:06 | 47.78114 | 1.31893 | 36244 ft | 418 kts | 24° |
| 2026-04-23 15:07 | 47.83259 | 1.35955 | 36247 ft | 418 kts | 25° |
| 2026-04-23 15:07 | 47.88409 | 1.40013 | 36249 ft | 419 kts | 25° |
| 2026-04-23 15:08 | 47.93555 | 1.44091 | 36246 ft | 419 kts | 25° |
| 2026-04-23 15:09 | 48.01248 | 1.50215 | 36251 ft | 419 kts | 25° |
| 2026-04-23 15:09 | 48.06403 | 1.54333 | 36242 ft | 420 kts | 25° |
| 2026-04-23 15:10 | 48.10725 | 1.57788 | 36239 ft | 420 kts | 25° |
| 2026-04-23 15:10 | 48.16737 | 1.62591 | 36242 ft | 421 kts | 25° |
| 2026-04-23 15:11 | 48.21916 | 1.66750 | 36253 ft | 421 kts | 26° |
| 2026-04-23 15:11 | 48.27091 | 1.70919 | 36250 ft | 422 kts | 26° |
| 2026-04-23 15:12 | 48.32238 | 1.75079 | 36254 ft | 424 kts | 28° |
| 2026-04-23 15:12 | 48.37466 | 1.79311 | 36252 ft | 426 kts | 27° |
| 2026-04-23 15:13 | 48.42693 | 1.83537 | 36258 ft | 427 kts | 28° |
| 2026-04-23 15:13 | 48.47905 | 1.87768 | 36258 ft | 428 kts | 29° |
| 2026-04-23 15:14 | 48.53176 | 1.92063 | 36268 ft | 430 kts | 29° |
| 2026-04-23 15:14 | 48.58422 | 1.96340 | 36275 ft | 430 kts | 29° |
| 2026-04-23 15:15 | 48.63704 | 2.00655 | 36280 ft | 431 kts | 29° |
| 2026-04-23 15:15 | 48.68983 | 2.04986 | 36279 ft | 432 kts | 31° |
| 2026-04-23 15:16 | 48.73668 | 2.10569 | 36277 ft | 428 kts | 51° |
| 2026-04-23 15:16 | 48.76736 | 2.18225 | 36275 ft | 425 kts | 71° |
| 2026-04-23 15:17 | 48.78370 | 2.26776 | 36285 ft | 424 kts | 77° |
| 2026-04-23 15:17 | 48.79922 | 2.35421 | 36291 ft | 424 kts | 77° |
| 2026-04-23 15:18 | 48.81468 | 2.44063 | 36293 ft | 424 kts | 77° |
| 2026-04-23 15:18 | 48.83002 | 2.52676 | 36295 ft | 424 kts | 77° |
| 2026-04-23 15:19 | 48.84536 | 2.61334 | 36296 ft | 424 kts | 77° |
| 2026-04-23 15:19 | 48.86058 | 2.69992 | 36327 ft | 423 kts | 78° |
| 2026-04-23 15:20 | 48.87317 | 2.77155 | 36330 ft | 422 kts | 78° |
| 2026-04-23 15:20 | 48.89065 | 2.87177 | 36320 ft | 421 kts | 78° |
| 2026-04-23 15:21 | 48.90557 | 2.95783 | 36331 ft | 420 kts | 78° |
| 2026-04-23 15:21 | 48.92048 | 3.04384 | 36325 ft | 419 kts | 78° |
| 2026-04-23 15:22 | 48.93524 | 3.12970 | 36312 ft | 419 kts | 79° |
| 2026-04-23 15:22 | 48.94966 | 3.21487 | 36323 ft | 418 kts | 79° |
| 2026-04-23 15:23 | 48.96412 | 3.30034 | 36326 ft | 417 kts | 79° |
| 2026-04-23 15:23 | 48.97859 | 3.38589 | 36319 ft | 416 kts | 79° |
| 2026-04-23 15:24 | 48.99298 | 3.47135 | 36316 ft | 416 kts | 79° |
| 2026-04-23 15:24 | 49.00722 | 3.55646 | 36309 ft | 416 kts | 79° |
| 2026-04-23 15:25 | 49.02153 | 3.64197 | 36323 ft | 415 kts | 79° |
| 2026-04-23 15:25 | 49.03570 | 3.72734 | 36331 ft | 414 kts | 79° |
| 2026-04-23 15:26 | 49.04975 | 3.81241 | 36324 ft | 413 kts | 79° |
| 2026-04-23 15:26 | 49.05672 | 3.85478 | 36550 ft | 413 kts | 79° |
| 2026-04-23 15:26 | 49.06363 | 3.89692 | 36807 ft | 412 kts | 79° |
| 2026-04-23 15:26 | 49.07059 | 3.93934 | 37065 ft | 412 kts | 79° |
| 2026-04-23 15:27 | 49.07751 | 3.98177 | 37258 ft | 413 kts | 79° |
| 2026-04-23 15:27 | 49.09137 | 4.06744 | 37304 ft | 416 kts | 79° |
| 2026-04-23 15:28 | 49.10513 | 4.15271 | 37299 ft | 416 kts | 79° |
| 2026-04-23 15:28 | 49.11900 | 4.23858 | 37301 ft | 416 kts | 79° |
| 2026-04-23 15:29 | 49.13275 | 4.32444 | 37304 ft | 416 kts | 79° |
| 2026-04-23 15:29 | 49.15133 | 4.40801 | 37311 ft | 420 kts | 71° |
| 2026-04-23 15:30 | 49.17398 | 4.49062 | 37311 ft | 420 kts | 71° |
| 2026-04-23 15:30 | 49.19634 | 4.57323 | 37313 ft | 421 kts | 71° |
| 2026-04-23 15:31 | 49.21866 | 4.65602 | 37314 ft | 421 kts | 71° |
| 2026-04-23 15:31 | 49.24087 | 4.73837 | 37312 ft | 421 kts | 71° |
| 2026-04-23 15:32 | 49.26317 | 4.82144 | 37314 ft | 421 kts | 72° |
| 2026-04-23 15:32 | 49.28538 | 4.90463 | 37306 ft | 421 kts | 72° |
| 2026-04-23 15:33 | 49.30744 | 4.98766 | 37320 ft | 420 kts | 72° |
| 2026-04-23 15:33 | 49.32932 | 5.07019 | 37325 ft | 419 kts | 72° |
| 2026-04-23 15:34 | 49.35124 | 5.15317 | 37327 ft | 419 kts | 72° |
| 2026-04-23 15:34 | 49.36937 | 5.22194 | 37327 ft | 418 kts | 72° |
| 2026-04-23 15:35 | 49.39465 | 5.31845 | 37323 ft | 418 kts | 72° |
| 2026-04-23 15:35 | 49.41271 | 5.38740 | 37313 ft | 417 kts | 72° |
| 2026-04-23 15:36 | 49.43428 | 5.47011 | 37337 ft | 416 kts | 72° |
| 2026-04-23 15:36 | 49.45557 | 5.55242 | 37342 ft | 414 kts | 72° |
| 2026-04-23 15:37 | 49.47682 | 5.63463 | 37345 ft | 412 kts | 72° |
| 2026-04-23 15:37 | 49.49799 | 5.71631 | 37153 ft | 414 kts | 69° |
| 2026-04-23 15:37 | 49.51193 | 5.75530 | 36606 ft | 417 kts | 59° |
| 2026-04-23 15:38 | 49.53038 | 5.78990 | 36097 ft | 420 kts | 49° |
| 2026-04-23 15:38 | 49.55270 | 5.81913 | 35564 ft | 423 kts | 41° |
| 2026-04-23 15:38 | 49.57675 | 5.84503 | 35126 ft | 420 kts | 39° |
| 2026-04-23 15:38 | 49.60115 | 5.86969 | 34600 ft | 419 kts | 38° |
| 2026-04-23 15:39 | 49.62571 | 5.89372 | 34059 ft | 417 kts | 37° |
| 2026-04-23 15:39 | 49.65021 | 5.91749 | 33539 ft | 414 kts | 37° |
| 2026-04-23 15:39 | 49.67450 | 5.94117 | 33019 ft | 411 kts | 37° |
| 2026-04-23 15:39 | 49.69845 | 5.96482 | 32505 ft | 407 kts | 38° |
| 2026-04-23 15:40 | 49.72218 | 5.98851 | 32008 ft | 405 kts | 38° |
| 2026-04-23 15:40 | 49.74574 | 6.01223 | 31504 ft | 402 kts | 38° |
| 2026-04-23 15:40 | 49.76907 | 6.03589 | 31014 ft | 399 kts | 38° |
| 2026-04-23 15:40 | 49.79224 | 6.05940 | 30529 ft | 397 kts | 38° |
| 2026-04-23 15:41 | 49.81529 | 6.08273 | 30000 ft | 394 kts | 38° |
| 2026-04-23 15:41 | 49.83843 | 6.10522 | 29542 ft | 392 kts | 32° |
| 2026-04-23 15:41 | 49.86331 | 6.12121 | 29088 ft | 393 kts | 20° |
| 2026-04-23 15:41 | 49.89012 | 6.12923 | 28637 ft | 393 kts | 8° |
| 2026-04-23 15:42 | 49.91758 | 6.13014 | 28178 ft | 392 kts | 4° |
| 2026-04-23 15:42 | 49.94494 | 6.13026 | 27713 ft | 388 kts | 4° |
| 2026-04-23 15:42 | 49.97186 | 6.13033 | 27261 ft | 385 kts | 4° |
| 2026-04-23 15:42 | 49.99820 | 6.13042 | 26803 ft | 383 kts | 3° |
| 2026-04-23 15:43 | 50.02480 | 6.13051 | 26335 ft | 381 kts | 3° |
| 2026-04-23 15:43 | 50.05124 | 6.13060 | 25848 ft | 379 kts | 3° |
| 2026-04-23 15:43 | 50.07764 | 6.13074 | 25360 ft | 377 kts | 3° |
| 2026-04-23 15:43 | 50.10383 | 6.13089 | 24863 ft | 376 kts | 3° |
| 2026-04-23 15:44 | 50.12998 | 6.13107 | 24368 ft | 375 kts | 2° |
| 2026-04-23 15:44 | 50.15616 | 6.13126 | 23853 ft | 375 kts | 2° |
| 2026-04-23 15:44 | 50.18230 | 6.13141 | 23299 ft | 374 kts | 2° |
| 2026-04-23 15:44 | 50.20830 | 6.13153 | 22808 ft | 371 kts | 2° |
| 2026-04-23 15:45 | 50.23378 | 6.13165 | 22319 ft | 369 kts | 2° |
| 2026-04-23 15:45 | 50.25945 | 6.13178 | 21841 ft | 366 kts | 2° |
| 2026-04-23 15:45 | 50.28480 | 6.13408 | 21368 ft | 362 kts | 12° |
| 2026-04-23 15:45 | 50.30845 | 6.14478 | 20942 ft | 356 kts | 24° |
| 2026-04-23 15:46 | 50.32994 | 6.16335 | 20471 ft | 352 kts | 34° |
| 2026-04-23 15:46 | 50.35039 | 6.18439 | 20027 ft | 350 kts | 34° |
| 2026-04-23 15:46 | 50.37080 | 6.20538 | 19600 ft | 348 kts | 33° |
| 2026-04-23 15:46 | 50.39093 | 6.22608 | 19193 ft | 341 kts | 33° |
| 2026-04-23 15:47 | 50.41025 | 6.24597 | 18715 ft | 331 kts | 33° |
| 2026-04-23 15:47 | 50.42952 | 6.26586 | 18258 ft | 330 kts | 33° |
| 2026-04-23 15:47 | 50.44862 | 6.28557 | 17841 ft | 328 kts | 33° |
| 2026-04-23 15:47 | 50.46767 | 6.30521 | 17430 ft | 325 kts | 33° |
| 2026-04-23 15:48 | 50.48544 | 6.32700 | 17012 ft | 324 kts | 44° |
| 2026-04-23 15:48 | 50.49911 | 6.35456 | 16627 ft | 324 kts | 58° |
| 2026-04-23 15:48 | 50.50874 | 6.38663 | 16218 ft | 324 kts | 65° |
| 2026-04-23 15:48 | 50.51755 | 6.41929 | 15842 ft | 323 kts | 65° |
| 2026-04-23 15:49 | 50.52640 | 6.45180 | 15437 ft | 323 kts | 65° |
| 2026-04-23 15:49 | 50.53528 | 6.48427 | 15046 ft | 323 kts | 64° |
| 2026-04-23 15:49 | 50.54420 | 6.51677 | 14664 ft | 322 kts | 64° |
| 2026-04-23 15:49 | 50.55306 | 6.54908 | 14271 ft | 322 kts | 64° |
| 2026-04-23 15:50 | 50.56193 | 6.58150 | 13830 ft | 322 kts | 64° |
| 2026-04-23 15:50 | 50.57063 | 6.61336 | 13434 ft | 320 kts | 64° |
| 2026-04-23 15:50 | 50.57940 | 6.64569 | 13034 ft | 319 kts | 64° |
| 2026-04-23 15:50 | 50.58802 | 6.67766 | 12636 ft | 317 kts | 64° |
| 2026-04-23 15:51 | 50.59660 | 6.70955 | 12252 ft | 316 kts | 64° |
| 2026-04-23 15:51 | 50.60499 | 6.74118 | 11833 ft | 308 kts | 68° |
| 2026-04-23 15:51 | 50.60983 | 6.77360 | 11444 ft | 303 kts | 81° |
| 2026-04-23 15:51 | 50.61230 | 6.80644 | 11060 ft | 302 kts | 81° |
| 2026-04-23 15:52 | 50.61477 | 6.83932 | 10653 ft | 302 kts | 80° |
| 2026-04-23 15:52 | 50.61727 | 6.87223 | 10251 ft | 303 kts | 81° |
| 2026-04-23 15:52 | 50.61966 | 6.90428 | 10058 ft | 292 kts | 81° |
| 2026-04-23 15:52 | 50.62198 | 6.93578 | 9444 ft | 287 kts | 81° |
| 2026-04-23 15:53 | 50.62426 | 6.96640 | 9029 ft | 277 kts | 81° |
| 2026-04-23 15:53 | 50.62648 | 6.99637 | 8764 ft | 272 kts | 81° |
| 2026-04-23 15:53 | 50.62869 | 7.02593 | 8499 ft | 271 kts | 80° |
| 2026-04-23 15:53 | 50.63087 | 7.05528 | 8240 ft | 268 kts | 80° |
| 2026-04-23 15:54 | 50.63297 | 7.08381 | 7973 ft | 263 kts | 81° |
| 2026-04-23 15:54 | 50.63505 | 7.11223 | 7673 ft | 259 kts | 80° |
| 2026-04-23 15:54 | 50.63710 | 7.14030 | 7380 ft | 256 kts | 80° |
| 2026-04-23 15:54 | 50.63912 | 7.16806 | 7081 ft | 253 kts | 80° |
| 2026-04-23 15:55 | 50.64111 | 7.19551 | 6819 ft | 251 kts | 80° |
| 2026-04-23 15:55 | 50.64309 | 7.22279 | 6531 ft | 249 kts | 80° |
| 2026-04-23 15:55 | 50.64501 | 7.24932 | 6251 ft | 244 kts | 80° |
| 2026-04-23 15:55 | 50.64690 | 7.27561 | 5979 ft | 238 kts | 80° |
| 2026-04-23 15:56 | 50.64847 | 7.30147 | 5711 ft | 236 kts | 84° |
| 2026-04-23 15:56 | 50.64871 | 7.32737 | 5431 ft | 236 kts | 86° |
| 2026-04-23 15:56 | 50.64859 | 7.35316 | 5152 ft | 235 kts | 87° |
| 2026-04-23 15:56 | 50.64836 | 7.37882 | 4892 ft | 233 kts | 87° |
| 2026-04-23 15:57 | 50.65114 | 7.40323 | 4660 ft | 222 kts | 56° |
| 2026-04-23 15:57 | 50.66220 | 7.41859 | 4417 ft | 212 kts | 18° |
| 2026-04-23 15:57 | 50.67632 | 7.41934 | 4205 ft | 206 kts | 341° |
| 2026-04-23 15:57 | 50.68793 | 7.40627 | 4027 ft | 209 kts | 314° |
| 2026-04-23 15:58 | 50.69802 | 7.38990 | 3864 ft | 206 kts | 319° |
| 2026-04-23 15:58 | 50.70864 | 7.37473 | 3683 ft | 204 kts | 321° |
| 2026-04-23 15:58 | 50.71924 | 7.36001 | 3507 ft | 202 kts | 321° |
| 2026-04-23 15:58 | 50.72959 | 7.34564 | 3351 ft | 197 kts | 320° |
| 2026-04-23 15:59 | 50.73965 | 7.33154 | 3196 ft | 189 kts | 320° |
| 2026-04-23 15:59 | 50.74913 | 7.31817 | 3078 ft | 176 kts | 320° |
| 2026-04-23 15:59 | 50.75798 | 7.30568 | 2884 ft | 166 kts | 320° |
| 2026-04-23 15:59 | 50.76642 | 7.29366 | 2680 ft | 161 kts | 319° |
| 2026-04-23 16:00 | 50.77468 | 7.28182 | 2477 ft | 160 kts | 320° |
| 2026-04-23 16:00 | 50.78295 | 7.26992 | 2244 ft | 161 kts | 320° |
| 2026-04-23 16:00 | 50.79121 | 7.25804 | 2024 ft | 159 kts | 320° |
| 2026-04-23 16:00 | 50.79923 | 7.24648 | 1825 ft | 153 kts | 320° |
| 2026-04-23 16:01 | 50.80702 | 7.23525 | 1615 ft | 149 kts | 319° |
| 2026-04-23 16:01 | 50.81437 | 7.22464 | 1424 ft | 136 kts | 320° |
| 2026-04-23 16:01 | 50.82121 | 7.21480 | 1247 ft | 131 kts | 319° |
| 2026-04-23 16:01 | 50.82789 | 7.20515 | 1065 ft | 128 kts | 318° |
| 2026-04-23 16:02 | 50.83446 | 7.19563 | 891 ft | 128 kts | 318° |
| 2026-04-23 16:02 | 50.84103 | 7.18622 | 718 ft | 128 kts | 318° |
| 2026-04-23 16:02 | 50.84748 | 7.17679 | 558 ft | 127 kts | 319° |
| 2026-04-23 16:02 | 50.85403 | 7.16743 | 394 ft | 126 kts | 318° |
| 2026-04-23 16:03 | 50.86044 | 7.15810 | 298 ft | 118 kts | 317° |
| 2026-04-23 16:03 | 50.86534 | 7.15101 | 278 ft | 71 kts | 317° |
| 2026-04-23 16:03 | 50.86788 | 7.14732 | 267 ft | 30 kts | 316° |
| 2026-04-23 16:03 | 50.86870 | 7.14476 | 261 ft | 23 kts | 283° |
| 2026-04-23 16:04 | 50.86897 | 7.14242 | 256 ft | 22 kts | 279° |
| 2026-04-23 16:04 | 50.86934 | 7.14068 | 254 ft | 17 kts | 308° |
| 2026-04-23 16:04 | 50.87036 | 7.13915 | 244 ft | 23 kts | 317° |
| 2026-04-23 16:04 | 50.87163 | 7.13733 | 239 ft | 25 kts | 318° |
| 2026-04-23 16:05 | 50.87242 | 7.13618 | 236 ft | 24 kts | 317° |
| 2026-04-23 16:05 | 50.87402 | 7.13386 | 232 ft | 25 kts | 317° |
| 2026-04-23 16:05 | 50.87518 | 7.13217 | 234 ft | 22 kts | 317° |
| 2026-04-23 16:05 | 50.87628 | 7.13058 | 233 ft | 20 kts | 317° |
| 2026-04-23 16:06 | 50.87731 | 7.12909 | 235 ft | 19 kts | 317° |
| 2026-04-23 16:06 | 50.87792 | 7.12791 | 235 ft | 13 kts | 275° |
| 2026-04-23 16:06 | 50.87799 | 7.12654 | 234 ft | 14 kts | 308° |
| 2026-04-23 16:06 | 50.87886 | 7.12614 | 232 ft | 12 kts | 5° |
| 2026-04-23 16:07 | 50.87959 | 7.12556 | 232 ft | 10 kts | 317° |
| 2026-04-23 16:07 | 50.87987 | 7.12500 | 232 ft | 7 kts | 281° |
| 2026-04-23 16:07 | 50.87970 | 7.12436 | 232 ft | 5 kts | 245° |
| 2026-04-23 16:07 | 50.87964 | 7.12414 | 232 ft | 1 kts | 246° |
| 2026-04-23 16:08 | 50.87963 | 7.12414 | 232 ft | 0 kts | 246° |